Goldvein, Virginia
Current Conditions -  °F | °C
As of 5:15 PM on Thursday 27 Nov 2014 (Local Time) from KHWY Reporting Station
Scattered Clouds Scattered Clouds  
Wind Chill: 33°   Ceiling: Unl
Heat Index: 38°   Visibility: 10mi
Dew Point: 35°   Wind: 7mph
Humidity: 87%   Direction: 320°NW
Pressure: 30.11"   Gusts: NA
Location:  38.45°N, 77.65°W
Report Text: KHWY 272215Z AUTO 32006KT 10SM SCT075 04/02 A3011 RMK AO2 T00360017
Loading
Personal Weather Stations






























Interactive Weather Map New forecast layout! Learn more

10-Day Weather Forecast

Advertisements
Track Severe Weather on mobile